Time;durP1;ratioP1;P1;durP2;ratioP2;P2;SDS_P1;SDS_P2;PMS_P1;PMS_P2;Temp;Humidity;BMP_temperature;BMP_pressure;BME280_temperature;BME280_humidity;BME280_pressure;Samples;Min_cycle;Max_cycle;Signal;HPM_P1;HPM_P2
2023/05/25 00:01:42;;;;;;;43.92;2.22;;;;;;;23.59;43.20;100107.38;7314757;19;129152;-41
2023/05/25 00:04:09;;;;;;;44.85;2.13;;;;;;;23.61;42.73;100111.53;7316320;19;130894;-39
2023/05/25 00:06:36;;;;;;;17.45;1.02;;;;;;;23.59;42.89;100113.47;7316896;19;129026;-39
2023/05/25 00:09:01;;;;;;;26.63;1.35;;;;;;;23.63;42.62;100114.84;7311583;19;129092;-40
2023/05/25 00:11:27;;;;;;;28.52;1.42;;;;;;;23.64;43.00;100111.25;7315557;19;129132;-41
2023/05/25 00:13:52;;;;;;;68.60;3.55;;;;;;;23.51;42.73;100089.72;7312897;19;129891;-39
2023/05/25 00:16:18;;;;;;;30.17;1.60;;;;;;;23.64;42.57;100106.00;7316173;19;129528;-42
2023/05/25 00:18:44;;;;;;;24.30;1.33;;;;;;;23.67;42.99;100115.41;7316118;19;129121;-41
2023/05/25 00:21:10;;;;;;;50.40;2.60;;;;;;;23.50;42.94;100095.94;7313723;19;128996;-39
2023/05/25 00:23:35;;;;;;;49.75;2.50;;;;;;;23.64;43.05;100106.00;7319884;19;129311;-39
2023/05/25 00:26:02;;;;;;;72.95;3.40;;;;;;;23.61;43.25;100118.56;7319818;19;129427;-40
2023/05/25 00:28:27;;;;;;;27.13;1.40;;;;;;;23.53;43.25;100097.44;7318983;19;129777;-39
2023/05/25 00:30:53;;;;;;;87.82;4.35;;;;;;;23.63;43.51;100109.59;7322257;19;129115;-41
2023/05/25 00:33:18;;;;;;;38.03;1.90;;;;;;;23.49;43.33;100094.28;7320431;19;130443;-39
2023/05/25 00:35:45;;;;;;;36.72;1.90;;;;;;;23.61;42.74;100115.94;7322015;19;128888;-42
2023/05/25 00:38:18;;;;;;;14.05;0.90;;;;;;;23.59;43.00;100112.63;7322034;19;129323;-41
2023/05/25 00:40:44;;;;;;;23.60;1.45;;;;;;;23.60;42.72;100109.84;7320792;19;129181;-39
2023/05/25 00:43:11;;;;;;;40.53;2.10;;;;;;;23.63;42.84;100108.75;7319098;19;129378;-40
2023/05/25 00:45:37;;;;;;;53.58;2.75;;;;;;;23.61;42.66;100106.28;7320900;19;129160;-40
2023/05/25 00:48:05;;;;;;;14.53;0.90;;;;;;;23.51;43.42;100091.50;7319639;19;129462;-42
2023/05/25 00:50:41;;;;;;;32.58;1.67;;;;;;;23.62;42.75;100102.69;7321071;19;129177;-42
2023/05/25 00:53:08;;;;;;;53.28;2.72;;;;;;;23.63;42.79;100104.34;7319799;19;130459;-41
2023/05/25 00:55:58;;;;;;;30.42;1.63;;;;;;;23.64;42.66;100106.00;7321328;19;128876;-40
2023/05/25 00:58:26;;;;;;;38.95;1.98;;;;;;;23.62;42.76;100097.44;7321519;19;128987;-41
2023/05/25 01:00:56;;;;;;;24.10;1.30;;;;;;;23.61;43.03;100105.44;7321779;19;129666;-40
2023/05/25 01:03:26;;;;;;;25.17;1.45;;;;;;;23.63;42.94;100099.09;7319609;19;130427;-41
2023/05/25 01:05:54;;;;;;;33.17;1.75;;;;;;;23.52;42.42;100086.09;7321686;19;129338;-40
2023/05/25 01:08:23;;;;;;;53.35;2.70;;;;;;;23.64;42.93;100106.00;7319013;19;129104;-42
2023/05/25 01:10:50;;;;;;;26.40;1.38;;;;;;;23.63;43.10;100100.88;7321512;19;129193;-39
2023/05/25 01:13:18;;;;;;;26.85;1.48;;;;;;;23.63;43.23;100106.97;7319504;19;129263;-38
2023/05/25 01:15:45;;;;;;;24.85;1.52;;;;;;;23.63;43.21;100114.00;7321022;19;129334;-41
2023/05/25 01:18:13;;;;;;;55.13;2.70;;;;;;;23.64;43.00;100110.41;7320564;19;130021;-39
2023/05/25 01:20:57;;;;;;;38.58;2.22;;;;;;;23.61;43.11;100111.53;7321130;19;130249;-38
2023/05/25 01:23:28;;;;;;;25.88;1.50;;;;;;;23.65;42.63;100109.47;7318684;19;129590;-41
2023/05/25 01:25:59;;;;;;;26.08;1.48;;;;;;;23.64;42.61;100115.66;7320930;19;129367;-40
2023/05/25 01:28:29;;;;;;;25.25;1.33;;;;;;;23.66;43.17;100118.97;7319580;19;129213;-41
2023/05/25 01:30:55;;;;;;;38.70;2.05;;;;;;;23.63;42.80;100109.59;7320452;19;130466;-38
2023/05/25 01:33:22;;;;;;;60.03;2.97;;;;;;;23.63;42.90;100120.09;7315271;19;129337;-41
2023/05/25 01:35:49;;;;;;;31.52;1.83;;;;;;;23.66;43.15;100119.81;7320002;19;129154;-38
2023/05/25 01:38:16;;;;;;;26.77;1.60;;;;;;;23.55;43.09;100101.56;7320286;19;128869;-41
2023/05/25 01:40:42;;;;;;;37.70;1.95;;;;;;;23.64;42.71;100115.66;7320634;19;130050;-42
2023/05/25 01:43:07;;;;;;;48.47;2.85;;;;;;;23.63;43.23;100122.72;7318642;19;129650;-39
2023/05/25 01:45:33;;;;;;;29.43;1.50;;;;;;;23.63;42.61;100130.59;7320711;19;129892;-40
2023/05/25 01:48:11;;;;;;;28.73;1.47;;;;;;;23.64;42.85;100120.91;7318762;19;129315;-39
2023/05/25 01:50:50;;;;;;;11.93;0.90;;;;;;;23.64;42.97;100119.13;7319704;19;129540;-40
2023/05/25 01:53:21;;;;;;;40.58;2.30;;;;;;;23.65;42.52;100117.34;7317581;19;131237;-37
2023/05/25 01:56:10;;;;;;;39.97;2.08;;;;;;;23.63;42.74;100119.25;7318947;19;130058;-40
2023/05/25 01:58:42;;;;;;;40.97;1.98;;;;;;;23.57;43.24;100107.50;7318784;19;128866;-37
2023/05/25 02:01:08;;;;;;;31.40;1.67;;;;;;;23.58;43.23;100106.56;7320888;19;130275;-41
2023/05/25 02:03:36;;;;;;;29.88;1.85;;;;;;;23.61;42.68;100111.53;7316534;19;129173;-41
2023/05/25 02:06:01;;;;;;;30.27;1.67;;;;;;;23.64;43.00;100111.25;7319291;19;128768;-41
2023/05/25 02:08:26;;;;;;;39.78;2.03;;;;;;;23.64;42.74;100115.66;7317947;19;129407;-40
2023/05/25 02:10:52;;;;;;;31.60;1.70;;;;;;;23.61;43.17;100113.31;7319087;19;129174;-39
2023/05/25 02:13:17;;;;;;;25.83;1.37;;;;;;;23.63;43.23;100120.09;7316896;19;129287;-37
2023/05/25 02:15:42;;;;;;;27.97;1.60;;;;;;;23.62;42.64;100118.44;7318518;19;128954;-41
2023/05/25 02:18:08;;;;;;;46.20;2.37;;;;;;;23.66;42.84;100118.97;7319490;19;129074;-38
2023/05/25 02:20:35;;;;;;;25.05;1.77;;;;;;;23.62;42.90;100128.94;7319640;19;130262;-40
2023/05/25 02:23:01;;;;;;;25.08;1.27;;;;;;;23.66;42.68;100132.94;7316970;19;129352;-41
2023/05/25 02:25:26;;;;;;;36.63;2.03;;;;;;;23.63;42.72;100135.84;7318282;19;129163;-42
2023/05/25 02:27:51;;;;;;;66.00;3.30;;;;;;;23.62;43.11;100131.56;7317886;19;128741;-39
2023/05/25 02:30:17;;;;;;;29.90;1.50;;;;;;;23.65;42.57;100138.34;7319796;19;129389;-40
2023/05/25 02:32:42;;;;;;;27.70;1.45;;;;;;;23.63;42.79;100130.59;7316728;19;129183;-40
2023/05/25 02:35:08;;;;;;;43.50;2.13;;;;;;;23.64;42.88;100140.13;7317745;19;128733;-42
2023/05/25 02:37:33;;;;;;;28.83;1.58;;;;;;;23.65;42.33;100140.97;7319828;19;129292;-38
2023/05/25 02:39:59;;;;;;;33.30;1.90;;;;;;;23.61;43.31;100136.94;7318405;19;129706;-40
2023/05/25 02:42:24;;;;;;;35.35;1.88;;;;;;;23.64;42.70;100140.13;7316146;19;130896;-42
2023/05/25 02:44:49;;;;;;;48.10;2.33;;;;;;;23.64;42.51;100141.91;7317202;19;129137;-40
2023/05/25 02:47:16;;;;;;;38.17;2.00;;;;;;;23.64;42.86;100134.88;7317824;19;129685;-37
2023/05/25 02:49:42;;;;;;;35.08;1.88;;;;;;;23.63;42.90;100138.47;7317824;19;129289;-41
2023/05/25 02:52:07;;;;;;;21.35;1.33;;;;;;;23.62;42.68;100128.94;7317118;19;129096;-41
2023/05/25 02:54:33;;;;;;;61.20;3.13;;;;;;;23.63;42.51;100130.59;7316690;19;129161;-39
2023/05/25 02:56:58;;;;;;;29.53;1.63;;;;;;;23.62;42.63;100139.44;7318859;19;128999;-41
2023/05/25 02:59:24;;;;;;;35.05;1.98;;;;;;;23.62;42.51;100136.00;7317604;19;129616;-38
2023/05/25 03:01:50;;;;;;;53.40;2.63;;;;;;;23.61;42.90;100145.66;7316190;19;130817;-38
2023/05/25 03:04:16;;;;;;;48.10;2.33;;;;;;;23.63;42.80;100145.50;7316053;19;128881;-41
2023/05/25 03:06:42;;;;;;;;;;;;;;;23.62;42.88;100149.13;7318670;19;129436;-41
2023/05/25 03:09:08;;;;;;;40.70;2.10;;;;;;;23.57;43.18;100141.63;7314690;19;130305;-43
2023/05/25 03:11:33;;;;;;;36.00;1.92;;;;;;;23.65;43.04;100149.66;7316468;19;130606;-40
2023/05/25 03:13:59;;;;;;;77.53;4.20;;;;;;;23.61;43.25;100147.44;7316148;19;129117;-42
2023/05/25 03:16:24;;;;;;;13.40;0.90;;;;;;;23.64;42.76;100153.25;7316998;19;129015;-41
2023/05/25 03:18:50;;;;;;;25.13;1.38;;;;;;;23.66;42.78;100160.97;7317812;19;129466;-40
2023/05/25 03:21:15;;;;;;;23.13;1.52;;;;;;;23.56;43.04;100144.41;7315203;19;130132;-39
2023/05/25 03:23:41;;;;;;;58.47;2.90;;;;;;;23.66;42.52;100159.19;7313569;19;129368;-39
2023/05/25 03:26:06;;;;;;;26.98;1.52;;;;;;;23.63;42.87;100162.09;7317269;19;128959;-41
2023/05/25 03:28:31;;;;;;;30.53;1.67;;;;;;;23.64;43.16;100163.75;7314725;19;129047;-41
2023/05/25 03:30:57;;;;;;;38.28;1.90;;;;;;;23.65;42.79;100170.66;7316054;19;128956;-36
2023/05/25 03:33:22;;;;;;;38.65;2.03;;;;;;;23.63;42.63;100169.97;7314529;19;128960;-41
2023/05/25 03:35:47;;;;;;;32.20;1.70;;;;;;;23.59;43.24;100165.97;7316105;19;129743;-42
2023/05/25 03:38:13;;;;;;;38.43;2.07;;;;;;;23.60;43.09;100167.59;7316438;19;130387;-41
2023/05/25 03:40:38;;;;;;;48.92;2.50;;;;;;;23.63;42.80;100167.34;7317072;19;129534;-40
2023/05/25 03:43:03;;;;;;;25.20;1.30;;;;;;;23.63;42.91;100177.84;7316362;19;129146;-41
2023/05/25 03:45:29;;;;;;;25.35;1.48;;;;;;;23.64;42.82;100181.28;7317867;19;129061;-40
2023/05/25 03:47:54;;;;;;;12.03;0.97;;;;;;;23.56;42.55;100171.50;7315584;19;130071;-42
2023/05/25 03:50:20;;;;;;;42.80;2.10;;;;;;;23.60;43.64;100183.34;7316077;19;130784;-39
2023/05/25 03:52:45;;;;;;;24.40;1.40;;;;;;;23.61;42.61;100185.03;7316119;19;129117;-42
2023/05/25 03:55:13;;;;;;;25.50;1.30;;;;;;;23.63;42.64;100188.34;7315098;19;129176;-37
2023/05/25 03:57:39;;;;;;;18.52;1.15;;;;;;;23.65;42.47;100185.59;7319453;19;130406;-42
2023/05/25 04:00:05;;;;;;;39.03;2.00;;;;;;;23.61;43.12;100187.66;7323088;19;129333;-38
2023/05/25 04:02:30;;;;;;;24.57;1.37;;;;;;;23.64;43.29;100194.41;7322622;19;129081;-42
2023/05/25 04:04:56;;;;;;;11.53;0.83;;;;;;;23.64;42.41;100195.25;7320408;19;128992;-38
2023/05/25 04:07:21;;;;;;;34.15;1.90;;;;;;;23.62;42.66;100202.44;7321618;19;130633;-41
2023/05/25 04:09:46;;;;;;;45.05;2.17;;;;;;;23.65;42.42;100207.41;7320670;19;129536;-38
2023/05/25 04:12:12;;;;;;;26.20;1.57;;;;;;;23.64;42.81;100211.00;7319438;19;129131;-37
2023/05/25 04:14:37;;;;;;;30.88;1.52;;;;;;;23.63;43.15;100214.59;7321926;19;129037;-42
2023/05/25 04:17:03;;;;;;;44.03;2.37;;;;;;;23.63;42.84;100219.84;7322904;19;129529;-39
2023/05/25 04:19:28;;;;;;;65.07;3.23;;;;;;;23.63;43.13;100217.22;7319939;19;130849;-39
2023/05/25 04:21:54;;;;;;;32.00;1.73;;;;;;;23.62;42.83;100212.13;7321700;19;128778;-42
2023/05/25 04:24:20;;;;;;;63.38;3.40;;;;;;;23.62;43.16;100212.94;7321189;19;129683;-41
2023/05/25 04:26:46;;;;;;;;;;;;;;;23.59;42.49;100210.59;7321944;19;130373;-41
2023/05/25 04:29:13;;;;;;;34.22;1.80;;;;;;;23.52;42.96;100198.16;7319319;19;130445;-39
2023/05/25 04:31:39;;;;;;;26.83;1.52;;;;;;;23.61;42.49;100205.19;7319461;19;128866;-41
2023/05/25 04:34:04;;;;;;;40.30;2.17;;;;;;;23.64;43.07;100207.53;7320759;19;129022;-40
2023/05/25 04:36:33;;;;;;;54.47;2.72;;;;;;;23.64;42.72;100210.16;7317255;19;130353;-41
2023/05/25 04:39:01;;;;;;;47.83;2.40;;;;;;;23.64;42.48;100211.00;7322163;19;129336;-42
2023/05/25 04:41:28;;;;;;;31.45;1.73;;;;;;;23.64;42.72;100208.38;7320799;19;129145;-41
2023/05/25 04:43:54;;;;;;;72.15;3.83;;;;;;;23.58;42.82;100201.06;7318008;19;129017;-41
2023/05/25 04:46:19;;;;;;;38.05;1.92;;;;;;;23.65;42.73;100203.97;7317692;19;128895;-41
2023/05/25 04:48:44;;;;;;;40.67;2.00;;;;;;;23.64;42.31;100213.63;7319589;19;129443;-42
2023/05/25 04:51:11;;;;;;;73.47;3.93;;;;;;;23.63;42.77;100214.59;7317507;19;129118;-39
2023/05/25 04:53:36;;;;;;;43.42;2.33;;;;;;;23.58;42.51;100200.22;7315818;19;129124;-39
2023/05/25 04:56:02;;;;;;;48.10;2.28;;;;;;;23.62;42.65;100207.69;7319730;19;129137;-40
2023/05/25 04:58:32;;;;;;;35.10;1.80;;;;;;;23.60;42.97;100209.59;7319880;19;129206;-39
2023/05/25 05:00:57;;;;;;;34.42;1.85;;;;;;;23.65;43.08;100206.59;7319198;19;129173;-39
2023/05/25 05:03:23;;;;;;;28.23;1.53;;;;;;;23.63;42.63;100211.97;7317489;19;128809;-40
2023/05/25 05:05:49;;;;;;;60.70;3.15;;;;;;;23.61;43.04;100210.44;7318779;19;129463;-40
2023/05/25 05:08:14;;;;;;;30.30;1.73;;;;;;;23.59;42.73;100202.72;7320342;19;131044;-39
2023/05/25 05:10:39;;;;;;;67.32;3.65;;;;;;;23.59;43.00;100210.59;7317587;19;129316;-42
2023/05/25 05:13:05;;;;;;;19.70;1.23;;;;;;;23.59;42.53;100194.84;7316183;19;129041;-37
2023/05/25 05:15:30;;;;;;;52.67;2.47;;;;;;;23.62;43.04;100212.13;7319061;19;129426;-41
2023/05/25 05:17:56;;;;;;;29.63;1.50;;;;;;;23.61;43.27;100203.41;7320088;19;130427;-40
2023/05/25 05:20:21;;;;;;;34.30;1.80;;;;;;;23.48;43.26;100188.88;7317386;19;128977;-40
2023/05/25 05:22:47;;;;;;;29.10;1.65;;;;;;;23.61;42.56;100211.28;7317684;19;129299;-37
2023/05/25 05:25:12;;;;;;;24.40;1.42;;;;;;;23.62;42.92;100212.13;7317170;19;129265;-41
2023/05/25 05:27:38;;;;;;;27.90;1.70;;;;;;;23.62;42.52;100212.94;7319524;19;129242;-40
2023/05/25 05:30:04;;;;;;;24.25;1.35;;;;;;;23.61;42.71;100211.28;7320597;19;128990;-40
2023/05/25 05:32:29;;;;;;;33.20;1.85;;;;;;;23.61;42.50;100215.69;7317571;19;129265;-42
2023/05/25 05:34:54;;;;;;;45.93;2.57;;;;;;;23.63;43.11;100214.59;7320397;19;129089;-38
2023/05/25 05:37:20;;;;;;;33.22;2.00;;;;;;;23.62;42.82;100217.38;7320789;19;129241;-40
2023/05/25 05:39:45;;;;;;;35.70;1.90;;;;;;;23.53;42.57;100207.69;7319185;19;129322;-42
2023/05/25 05:42:10;;;;;;;41.80;2.20;;;;;;;23.62;42.74;100222.63;7318713;19;131196;-39
2023/05/25 05:44:36;;;;;;;31.13;1.60;;;;;;;23.58;42.69;100219.44;7320813;19;130343;-38
2023/05/25 05:47:02;;;;;;;28.43;1.63;;;;;;;23.59;43.23;100222.88;7320436;19;129326;-36
2023/05/25 05:49:28;;;;;;;45.77;2.43;;;;;;;23.59;42.60;100218.47;7317359;19;129990;-37
2023/05/25 05:51:54;;;;;;;39.75;2.05;;;;;;;23.58;43.13;100216.81;7318697;19;129279;-41
2023/05/25 05:54:19;;;;;;;54.10;2.73;;;;;;;23.62;42.87;100225.25;7319721;19;129200;-40
2023/05/25 05:56:45;;;;;;;23.75;1.33;;;;;;;23.63;42.78;100225.09;7318541;19;130285;-42
2023/05/25 05:59:10;;;;;;;26.08;1.42;;;;;;;23.64;43.09;100221.50;7319841;19;128650;-41
2023/05/25 06:01:36;;;;;;;57.13;2.80;;;;;;;23.63;42.51;100219.84;7318948;19;129029;-39
2023/05/25 06:04:01;;;;;;;52.47;2.73;;;;;;;23.65;43.04;100223.16;7318790;19;131719;-39
2023/05/25 06:06:27;;;;;;;12.17;0.97;;;;;;;23.61;43.17;100227.03;7319061;19;130401;-42
2023/05/25 06:08:53;;;;;;;28.80;1.55;;;;;;;23.62;42.43;100222.63;7317719;19;129430;-39
2023/05/25 06:11:18;;;;;;;26.97;1.40;;;;;;;23.62;42.55;100223.44;7319924;19;129140;-40
2023/05/25 06:13:43;;;;;;;26.80;1.53;;;;;;;23.63;43.12;100234.78;7316760;19;129130;-40
2023/05/25 06:16:09;;;;;;;17.35;0.95;;;;;;;23.59;42.68;100233.38;7316855;19;131789;-39
2023/05/25 06:18:34;;;;;;;37.70;2.07;;;;;;;23.62;43.10;100223.44;7317807;19;128876;-41
2023/05/25 06:21:00;;;;;;;47.33;2.30;;;;;;;23.63;42.81;100232.16;7317900;19;129565;-42
2023/05/25 06:23:26;;;;;;;26.45;1.65;;;;;;;23.61;42.81;100227.03;7317496;19;130951;-40
2023/05/25 06:25:53;;;;;;;4.57;0.53;;;;;;;23.60;42.96;100225.34;7318250;19;129150;-41
2023/05/25 06:28:18;;;;;;;32.40;1.63;;;;;;;23.59;42.54;100222.88;7318075;19;128939;-40
2023/05/25 06:30:43;;;;;;;28.98;1.50;;;;;;;23.63;42.45;100219.84;7318406;19;129392;-41
2023/05/25 06:33:09;;;;;;;30.23;1.63;;;;;;;23.62;42.62;100227.88;7316179;19;129651;-38
2023/05/25 06:35:34;;;;;;;29.23;1.53;;;;;;;23.62;42.62;100236.56;7317170;19;129487;-38
2023/05/25 06:38:00;;;;;;;20.63;1.20;;;;;;;23.59;42.54;100228.97;7318085;19;128772;-42
2023/05/25 06:40:26;;;;;;;73.03;3.63;;;;;;;23.59;42.98;100228.97;7317257;19;128884;-41
2023/05/25 06:42:51;;;;;;;26.08;1.45;;;;;;;23.63;42.96;100235.59;7317050;19;129575;-42
2023/05/25 06:45:16;;;;;;;26.13;1.43;;;;;;;23.65;42.37;100238.91;7317154;19;129571;-41
2023/05/25 06:47:42;;;;;;;49.43;2.53;;;;;;;23.62;42.60;100227.88;7317170;19;128832;-41
2023/05/25 06:50:08;;;;;;;25.30;1.25;;;;;;;23.63;42.34;100235.59;7315421;19;128818;-40
2023/05/25 06:52:33;;;;;;;29.17;1.63;;;;;;;23.61;42.74;100240.16;7315923;19;129606;-41
2023/05/25 06:54:58;;;;;;;24.10;1.33;;;;;;;23.61;42.20;100239.31;7316471;19;129314;-42
2023/05/25 06:57:24;;;;;;;46.42;2.30;;;;;;;23.61;42.26;100242.78;7318007;19;129578;-43
2023/05/25 06:59:49;;;;;;;38.72;1.95;;;;;;;23.62;42.27;100233.94;7317645;19;128958;-39
2023/05/25 07:02:15;;;;;;;27.17;1.40;;;;;;;23.59;42.84;100236.00;7316713;19;129581;-41
2023/05/25 07:04:40;;;;;;;39.40;1.90;;;;;;;23.56;42.88;100231.88;7316372;19;129536;-39
2023/05/25 07:07:06;;;;;;;38.15;1.98;;;;;;;23.49;42.91;100212.38;7318021;19;128764;-41
2023/05/25 07:09:31;;;;;;;26.70;1.57;;;;;;;23.64;43.03;100231.16;7316600;19;129763;-41
2023/05/25 07:11:57;;;;;;;20.60;1.20;;;;;;;23.62;42.57;100236.56;7315821;19;129524;-42
2023/05/25 07:14:23;;;;;;;34.77;1.70;;;;;;;23.61;42.58;100234.91;7318142;19;129260;-41
2023/05/25 07:16:48;;;;;;;20.90;1.27;;;;;;;23.62;42.79;100233.94;7317235;19;128801;-42
2023/05/25 07:19:14;;;;;;;35.40;1.90;;;;;;;23.60;42.87;100233.22;7317572;19;129008;-40
2023/05/25 07:21:39;;;;;;;36.65;1.92;;;;;;;23.63;42.91;100235.59;7316987;19;130376;-39
2023/05/25 07:24:05;;;;;;;41.87;2.17;;;;;;;23.61;42.90;100232.28;7316570;19;129153;-42
2023/05/25 07:26:31;;;;;;;38.00;1.93;;;;;;;23.61;42.60;100234.91;7318133;19;129663;-38
2023/05/25 07:28:56;;;;;;;23.60;1.27;;;;;;;23.61;42.31;100232.28;7315692;19;128830;-41
2023/05/25 07:31:22;;;;;;;26.90;1.52;;;;;;;23.58;42.65;100226.47;7314545;19;129892;-37
2023/05/25 07:33:47;;;;;;;70.40;3.55;;;;;;;23.57;42.99;100224.81;7311976;19;130090;-38
2023/05/25 07:36:13;;;;;;;27.98;1.48;;;;;;;23.62;42.86;100226.06;7317971;19;129494;-39
2023/05/25 07:38:38;;;;;;;25.52;1.35;;;;;;;23.57;42.87;100215.13;7317225;19;129312;-41
2023/05/25 07:41:04;;;;;;;5.50;0.60;;;;;;;23.58;42.67;100216.81;7316462;19;129629;-42
2023/05/25 07:43:29;;;;;;;48.47;2.43;;;;;;;23.58;42.97;100219.44;7313558;19;129577;-39
2023/05/25 07:45:55;;;;;;;28.30;1.48;;;;;;;23.62;42.48;100218.19;7316308;19;129121;-39
2023/05/25 07:48:20;;;;;;;24.80;1.40;;;;;;;23.58;42.37;100214.19;7316175;19;128907;-41
2023/05/25 07:50:45;;;;;;;33.00;1.83;;;;;;;23.58;42.92;100219.44;7316100;19;130034;-37
2023/05/25 07:53:11;;;;;;;48.58;2.38;;;;;;;23.58;42.62;100219.44;7314296;19;129594;-38
2023/05/25 07:55:36;;;;;;;16.73;1.07;;;;;;;23.57;42.38;100220.38;7315577;19;128849;-42
2023/05/25 07:58:02;;;;;;;29.73;1.58;;;;;;;23.58;43.08;100227.31;7316124;19;128787;-41
2023/05/25 08:00:27;;;;;;;31.55;1.65;;;;;;;23.58;42.84;100235.19;7314666;19;129663;-40
2023/05/25 08:02:54;;;;;;;70.30;3.33;;;;;;;23.57;42.94;100236.13;7314173;19;130486;-42
2023/05/25 08:05:19;;;;;;;23.80;1.33;;;;;;;23.47;42.29;100218.75;7314410;19;129009;-40
2023/05/25 08:07:45;;;;;;;27.58;1.42;;;;;;;23.58;42.39;100237.81;7314761;19;129282;-42
2023/05/25 08:10:10;;;;;;;31.15;1.67;;;;;;;23.62;43.08;100244.44;7313061;19;130950;-41
2023/05/25 08:12:36;;;;;;;50.90;2.50;;;;;;;23.60;42.16;100240.31;7314555;19;130489;-39
2023/05/25 08:15:01;;;;;;;27.50;1.42;;;;;;;23.61;42.20;100240.16;7315818;19;129377;-40
2023/05/25 08:17:27;;;;;;;32.73;1.77;;;;;;;23.57;42.31;100235.31;7314681;19;129252;-42
2023/05/25 08:19:55;;;;;;;42.43;2.10;;;;;;;23.51;42.95;100215.69;7314941;19;130231;-40
2023/05/25 08:22:21;;;;;;;26.67;1.50;;;;;;;23.62;43.11;100233.13;7315001;19;130475;-42
2023/05/25 08:24:46;;;;;;;27.13;1.40;;;;;;;23.52;42.47;100217.34;7315125;19;131901;-42
2023/05/25 08:27:11;;;;;;;33.35;1.67;;;;;;;23.62;42.23;100233.94;7314750;19;129174;-39
2023/05/25 08:29:37;;;;;;;41.40;2.05;;;;;;;23.62;42.60;100243.63;7313069;19;130195;-42
2023/05/25 08:32:02;;;;;;;35.35;1.95;;;;;;;23.62;42.48;100244.44;7312893;19;129167;-39
2023/05/25 08:34:28;;;;;;;2.60;0.53;;;;;;;23.62;42.60;100243.63;7315060;19;128792;-40
2023/05/25 08:36:56;;;;;;;29.20;1.57;;;;;;;23.61;42.60;100232.28;7314504;19;128996;-38
2023/05/25 08:39:21;;;;;;;47.38;2.38;;;;;;;23.61;42.24;100245.41;7314307;19;131387;-39
2023/05/25 08:41:49;;;;;;;39.90;1.92;;;;;;;23.50;42.52;100224.53;7314458;19;130344;-39
2023/05/25 08:44:14;;;;;;;22.60;1.33;;;;;;;23.58;42.93;100243.06;7319376;19;129156;-41
2023/05/25 08:46:40;;;;;;;34.47;1.93;;;;;;;23.59;42.59;100242.09;7321608;19;128848;-38
2023/05/25 08:49:14;;;;;;;57.53;2.63;;;;;;;23.60;42.28;100245.56;7320589;19;129241;-42
2023/05/25 08:51:50;;;;;;;37.55;1.95;;;;;;;23.58;42.91;100237.81;7320999;19;129294;-40
2023/05/25 08:54:40;;;;;;;34.85;1.80;;;;;;;23.60;42.61;100241.09;7322581;19;129063;-38
2023/05/25 08:57:13;;;;;;;36.55;1.95;;;;;;;23.61;42.66;100244.56;7321160;19;130585;-41
2023/05/25 08:59:49;;;;;;;17.48;1.00;;;;;;;23.59;42.53;100249.97;7321723;19;129151;-41
2023/05/25 09:02:17;;;;;;;30.75;1.58;;;;;;;23.59;42.60;100247.34;7320162;19;130219;-43
2023/05/25 09:04:43;;;;;;;27.63;1.45;;;;;;;23.60;42.72;100246.34;7320958;19;128978;-42
2023/05/25 09:07:09;;;;;;;52.27;2.47;;;;;;;23.60;42.42;100256.03;7321289;19;128782;-42
2023/05/25 09:09:35;;;;;;;30.10;1.70;;;;;;;23.57;42.66;100257.13;7320225;19;129126;-40
2023/05/25 09:12:03;;;;;;;15.43;0.93;;;;;;;23.62;42.72;100256.75;7319794;19;130285;-38
2023/05/25 09:14:29;;;;;;;27.67;1.38;;;;;;;23.58;42.59;100258.81;7320555;19;128778;-38
2023/05/25 09:16:57;;;;;;;50.83;2.43;;;;;;;23.61;42.55;100258.53;7321018;19;128932;-39
2023/05/25 09:19:22;;;;;;;24.55;1.30;;;;;;;23.58;42.37;100248.31;7319765;19;129036;-39
2023/05/25 09:21:47;;;;;;;28.10;1.45;;;;;;;23.58;42.25;100253.56;7320324;19;129223;-40
2023/05/25 09:24:14;;;;;;;33.25;1.77;;;;;;;23.59;42.90;100251.75;7320338;19;128909;-39
2023/05/25 09:26:39;;;;;;;41.60;2.15;;;;;;;23.58;42.86;100258.81;7320808;19;129586;-43
2023/05/25 09:29:05;;;;;;;26.33;1.37;;;;;;;23.60;42.44;100261.31;7320381;19;129387;-39
2023/05/25 09:31:30;;;;;;;29.33;1.53;;;;;;;23.61;42.53;100255.06;7321060;19;130386;-38
2023/05/25 09:33:58;;;;;;;74.33;3.87;;;;;;;23.63;42.32;100258.41;7313573;19;130960;-40
2023/05/25 09:36:25;;;;;;;25.85;1.35;;;;;;;23.60;42.16;100256.03;7320892;19;128935;-40
2023/05/25 09:38:52;;;;;;;27.55;1.48;;;;;;;23.61;42.87;100260.31;7320544;19;129586;-43
2023/05/25 09:41:18;;;;;;;30.38;1.52;;;;;;;23.62;42.23;100270.69;7319286;19;128928;-40
2023/05/25 09:43:43;;;;;;;35.45;1.85;;;;;;;23.61;42.11;100263.78;7316960;19;129431;-40
2023/05/25 09:46:10;;;;;;;32.42;1.65;;;;;;;23.57;42.66;100267.63;7320749;19;128853;-39
2023/05/25 09:48:35;;;;;;;30.55;1.50;;;;;;;23.58;42.28;100269.31;7321261;19;130630;-39
2023/05/25 09:51:01;;;;;;;28.93;1.50;;;;;;;23.59;42.27;100272.75;7319482;19;129194;-41
2023/05/25 09:53:26;;;;;;;63.95;3.20;;;;;;;23.59;42.25;100265.72;7317365;19;129386;-37
2023/05/25 09:55:52;;;;;;;34.70;1.77;;;;;;;23.59;42.19;100270.97;7318024;19;129752;-40
2023/05/25 09:58:17;;;;;;;22.17;1.20;;;;;;;23.45;42.84;100255.63;7321052;19;129149;-40
2023/05/25 10:00:44;;;;;;;25.95;1.48;;;;;;;23.55;42.53;100274.81;7320118;19;130359;-41
2023/05/25 10:03:13;;;;;;;34.20;1.77;;;;;;;23.58;42.55;100273.72;7317338;19;129469;-40
2023/05/25 10:05:39;;;;;;;20.75;1.38;;;;;;;23.61;42.82;100283.94;7319059;19;128919;-42
2023/05/25 10:08:05;;;;;;;25.35;1.35;;;;;;;23.58;42.39;100282.44;7319528;19;131063;-42
2023/05/25 10:10:31;;;;;;;16.70;0.90;;;;;;;23.60;42.57;100282.31;7316269;19;129282;-41
2023/05/25 10:12:57;;;;;;;44.35;2.20;;;;;;;23.47;42.80;100258.91;7316967;19;128856;-39
2023/05/25 10:15:23;;;;;;;67.32;3.72;;;;;;;23.57;42.85;100267.63;7319163;19;128897;-39
2023/05/25 10:17:53;;;;;;;28.52;1.40;;;;;;;23.58;42.35;100274.56;7318490;19;130332;-41
2023/05/25 10:20:21;;;;;;;35.50;1.88;;;;;;;23.58;42.52;100269.31;7318847;19;130363;-39
2023/05/25 10:22:59;;;;;;;39.70;1.92;;;;;;;23.58;42.51;100269.31;7318738;19;129101;-43
2023/05/25 10:25:30;;;;;;;50.22;2.42;;;;;;;23.58;42.17;100264.06;7318280;19;129122;-42
2023/05/25 10:27:58;;;;;;;26.83;1.42;;;;;;;23.58;42.17;100269.31;7320097;19;130537;-41
2023/05/25 10:30:25;;;;;;;27.30;1.42;;;;;;;23.59;42.28;100272.75;7316596;19;129808;-41
2023/05/25 10:32:51;;;;;;;36.05;1.92;;;;;;;23.62;42.12;100268.06;7317759;19;129144;-42
2023/05/25 10:35:18;;;;;;;37.83;1.83;;;;;;;23.61;42.52;100268.19;7319252;19;128900;-41
2023/05/25 10:37:44;;;;;;;;;;;;;;;23.54;42.46;100265.28;7319537;19;129199;-41
2023/05/25 10:40:10;;;;;;;28.95;1.52;;;;;;;23.61;42.20;100263.78;7317807;19;130030;-43
2023/05/25 10:42:36;;;;;;;24.80;1.37;;;;;;;23.57;42.74;100262.38;7315729;19;128947;-36
2023/05/25 10:45:03;;;;;;;;;;;;;;;23.57;42.11;100265.00;7317716;19;128873;-38
2023/05/25 10:47:29;;;;;;;38.65;1.90;;;;;;;23.61;42.07;100266.41;7317110;19;129287;-37
2023/05/25 10:49:56;;;;;;;3.80;0.50;;;;;;;23.57;42.92;100258.94;7316256;19;129378;-40
2023/05/25 10:52:31;;;;;;;34.33;1.73;;;;;;;23.61;42.77;100262.94;7317292;19;128931;-38
2023/05/25 10:55:04;;;;;;;8.32;0.55;;;;;;;23.59;42.60;100263.09;7318405;19;128841;-41
2023/05/25 10:57:29;;;;;;;51.05;2.35;;;;;;;23.59;42.27;100260.47;7318707;19;130368;-41
2023/05/25 11:00:00;;;;;;;64.18;3.35;;;;;;;23.58;42.60;100253.56;7319099;19;130404;-41
2023/05/25 11:02:27;;;;;;;26.98;1.35;;;;;;;23.58;42.68;100250.94;7317806;19;129001;-40
2023/05/25 11:05:29;;;;;;;14.93;0.85;;;;;;;23.57;42.50;100249.25;7317935;19;129149;-39
2023/05/25 11:07:59;;;;;;;24.27;1.33;;;;;;;23.58;42.62;100248.31;7318157;19;130437;-41